Terminal Aerodrome Forecast
Issued by NWS Flagstaff, AZ

Home | Current Version | Previous Version | Text Only | Print | Product List | Glossary On
Versions: 1 2 3 4 5 6 7 8 9 10 11 12 13 14 15
702
FTUS45 KFGZ 231120
TAFFLG
TAF
KFLG 231120Z 2312/2412 VRB04KT P6SM SKC
     FM231400 05009G15KT P6SM SKC
     FM232200 32008KT P6SM FEW250
     FM240200 VRB03KT P6SM FEW250=

USA.gov is the U.S. government's official web portal to all federal, state and local government web resources and services.